sensor_id;sensor_type;location;lat;lon;timestamp;pressure;altitude;pressure_sealevel;temperature;humidity
47430;BME280;33181;49.246;7.372;2024-02-26T00:00:02;96848.16;;;8.64;66.24
47430;BME280;33181;49.246;7.372;2024-02-26T00:02:28;96847.13;;;8.49;66.83
47430;BME280;33181;49.246;7.372;2024-02-26T00:04:54;96857.09;;;8.45;67.70
47430;BME280;33181;49.246;7.372;2024-02-26T00:07:20;96849.03;;;8.39;68.46
47430;BME280;33181;49.246;7.372;2024-02-26T00:09:45;96849.41;;;8.26;68.37
47430;BME280;33181;49.246;7.372;2024-02-26T00:12:11;96852.72;;;8.28;69.71
47430;BME280;33181;49.246;7.372;2024-02-26T00:14:37;96846.66;;;8.27;70.78
47430;BME280;33181;49.246;7.372;2024-02-26T00:17:02;96841.44;;;8.27;70.27
47430;BME280;33181;49.246;7.372;2024-02-26T00:19:28;96854.66;;;8.26;70.56
47430;BME280;33181;49.246;7.372;2024-02-26T00:21:54;96844.72;;;8.29;71.71
47430;BME280;33181;49.246;7.372;2024-02-26T00:24:21;96850.31;;;8.08;71.55
47430;BME280;33181;49.246;7.372;2024-02-26T00:26:47;96855.19;;;8.03;72.23
47430;BME280;33181;49.246;7.372;2024-02-26T00:29:18;96854.56;;;8.09;73.90
47430;BME280;33181;49.246;7.372;2024-02-26T00:31:45;96854.69;;;8.00;73.47
47430;BME280;33181;49.246;7.372;2024-02-26T00:34:10;96853.06;;;8.07;73.55
47430;BME280;33181;49.246;7.372;2024-02-26T00:36:36;96855.03;;;8.05;74.04
47430;BME280;33181;49.246;7.372;2024-02-26T00:39:02;96844.41;;;8.06;73.92
47430;BME280;33181;49.246;7.372;2024-02-26T00:41:29;96841.47;;;8.01;74.48
47430;BME280;33181;49.246;7.372;2024-02-26T00:43:55;96847.31;;;7.95;75.41
47430;BME280;33181;49.246;7.372;2024-02-26T00:46:20;96843.34;;;7.91;75.64
47430;BME280;33181;49.246;7.372;2024-02-26T00:48:46;96845.97;;;7.91;75.94
47430;BME280;33181;49.246;7.372;2024-02-26T00:51:12;96843.81;;;7.86;76.86
47430;BME280;33181;49.246;7.372;2024-02-26T00:53:38;96844.44;;;7.80;76.89
47430;BME280;33181;49.246;7.372;2024-02-26T00:56:03;96846.91;;;7.82;77.34
47430;BME280;33181;49.246;7.372;2024-02-26T00:58:29;96840.53;;;7.84;77.46
47430;BME280;33181;49.246;7.372;2024-02-26T01:00:55;96833.06;;;7.89;77.44
47430;BME280;33181;49.246;7.372;2024-02-26T01:03:21;96838.09;;;7.83;78.01
47430;BME280;33181;49.246;7.372;2024-02-26T01:05:46;96838.53;;;7.78;78.71
47430;BME280;33181;49.246;7.372;2024-02-26T01:08:12;96837.41;;;7.81;78.63
47430;BME280;33181;49.246;7.372;2024-02-26T01:10:38;96838.41;;;7.80;78.52
47430;BME280;33181;49.246;7.372;2024-02-26T01:13:04;96839.38;;;7.79;79.17
47430;BME280;33181;49.246;7.372;2024-02-26T01:15:29;96842.91;;;7.70;79.45
47430;BME280;33181;49.246;7.372;2024-02-26T01:17:55;96847.28;;;7.69;79.41
47430;BME280;33181;49.246;7.372;2024-02-26T01:20:21;96851.88;;;7.67;80.02
47430;BME280;33181;49.246;7.372;2024-02-26T01:22:47;96851.25;;;7.73;80.26
47430;BME280;33181;49.246;7.372;2024-02-26T01:25:14;96857.78;;;7.51;81.05
47430;BME280;33181;49.246;7.372;2024-02-26T01:27:41;96856.22;;;7.40;82.10
47430;BME280;33181;49.246;7.372;2024-02-26T01:30:09;96862.00;;;7.26;83.59
47430;BME280;33181;49.246;7.372;2024-02-26T01:32:34;96864.06;;;7.40;83.75
47430;BME280;33181;49.246;7.372;2024-02-26T01:35:02;96870.63;;;7.45;84.49
47430;BME280;33181;49.246;7.372;2024-02-26T01:37:29;96869.22;;;7.32;85.28
47430;BME280;33181;49.246;7.372;2024-02-26T01:39:57;96874.75;;;7.29;86.49
47430;BME280;33181;49.246;7.372;2024-02-26T01:42:23;96865.19;;;7.20;86.77
47430;BME280;33181;49.246;7.372;2024-02-26T01:44:49;96877.34;;;7.11;88.45
47430;BME280;33181;49.246;7.372;2024-02-26T01:47:14;96872.06;;;7.03;89.21
47430;BME280;33181;49.246;7.372;2024-02-26T01:49:41;96880.09;;;6.92;90.99
47430;BME280;33181;49.246;7.372;2024-02-26T01:52:08;96872.34;;;7.00;91.04
47430;BME280;33181;49.246;7.372;2024-02-26T01:54:37;96869.19;;;6.96;91.69
47430;BME280;33181;49.246;7.372;2024-02-26T01:57:05;96859.72;;;6.95;91.67
47430;BME280;33181;49.246;7.372;2024-02-26T01:59:32;96858.81;;;6.87;91.98
47430;BME280;33181;49.246;7.372;2024-02-26T02:02:01;96860.38;;;6.80;92.96
47430;BME280;33181;49.246;7.372;2024-02-26T02:04:29;96855.75;;;6.73;91.83
47430;BME280;33181;49.246;7.372;2024-02-26T02:06:55;96854.66;;;6.48;92.36
47430;BME280;33181;49.246;7.372;2024-02-26T02:09:22;96854.75;;;6.57;92.71
47430;BME280;33181;49.246;7.372;2024-02-26T02:11:49;96842.38;;;6.59;92.80
47430;BME280;33181;49.246;7.372;2024-02-26T02:14:15;96847.50;;;6.50;93.86
47430;BME280;33181;49.246;7.372;2024-02-26T02:16:41;96839.00;;;6.48;93.08
47430;BME280;33181;49.246;7.372;2024-02-26T02:19:06;96845.88;;;6.49;93.85
47430;BME280;33181;49.246;7.372;2024-02-26T02:21:34;96842.13;;;6.52;92.97
47430;BME280;33181;49.246;7.372;2024-02-26T02:24:00;96848.78;;;6.46;93.77
47430;BME280;33181;49.246;7.372;2024-02-26T02:26:26;96836.88;;;6.62;93.18
47430;BME280;33181;49.246;7.372;2024-02-26T02:28:52;96837.22;;;6.49;93.58
47430;BME280;33181;49.246;7.372;2024-02-26T02:31:18;96841.19;;;6.53;93.43
47430;BME280;33181;49.246;7.372;2024-02-26T02:33:44;96835.88;;;6.45;94.03
47430;BME280;33181;49.246;7.372;2024-02-26T02:36:10;96830.53;;;6.46;94.41
47430;BME280;33181;49.246;7.372;2024-02-26T02:38:37;96818.53;;;6.54;94.23
47430;BME280;33181;49.246;7.372;2024-02-26T02:41:03;96821.78;;;6.65;93.67
47430;BME280;33181;49.246;7.372;2024-02-26T02:43:29;96818.59;;;6.62;94.26
47430;BME280;33181;49.246;7.372;2024-02-26T02:45:55;96815.53;;;6.48;95.59
47430;BME280;33181;49.246;7.372;2024-02-26T02:48:21;96817.44;;;6.56;96.06
47430;BME280;33181;49.246;7.372;2024-02-26T02:50:46;96829.91;;;6.35;96.62
47430;BME280;33181;49.246;7.372;2024-02-26T02:53:12;96818.00;;;6.22;97.14
47430;BME280;33181;49.246;7.372;2024-02-26T02:55:38;96828.56;;;6.21;97.77
47430;BME280;33181;49.246;7.372;2024-02-26T02:58:04;96832.38;;;6.26;97.73
47430;BME280;33181;49.246;7.372;2024-02-26T03:00:29;96825.03;;;6.40;97.06
47430;BME280;33181;49.246;7.372;2024-02-26T03:02:55;96811.81;;;6.23;97.22
47430;BME280;33181;49.246;7.372;2024-02-26T03:05:21;96815.41;;;6.22;98.27
47430;BME280;33181;49.246;7.372;2024-02-26T03:07:47;96810.59;;;6.18;98.27
47430;BME280;33181;49.246;7.372;2024-02-26T03:10:12;96811.44;;;6.18;99.51
47430;BME280;33181;49.246;7.372;2024-02-26T03:12:39;96810.25;;;6.13;99.18
47430;BME280;33181;49.246;7.372;2024-02-26T03:15:05;96810.13;;;6.04;99.88
47430;BME280;33181;49.246;7.372;2024-02-26T03:17:31;96804.91;;;6.04;100.00
47430;BME280;33181;49.246;7.372;2024-02-26T03:19:57;96811.50;;;5.99;99.95
47430;BME280;33181;49.246;7.372;2024-02-26T03:22:22;96798.88;;;6.04;100.00
47430;BME280;33181;49.246;7.372;2024-02-26T03:24:48;96799.81;;;6.13;100.00
47430;BME280;33181;49.246;7.372;2024-02-26T03:27:14;96799.66;;;6.14;100.00
47430;BME280;33181;49.246;7.372;2024-02-26T03:29:40;96801.28;;;6.25;97.95
47430;BME280;33181;49.246;7.372;2024-02-26T03:32:06;96810.47;;;6.19;97.88
47430;BME280;33181;49.246;7.372;2024-02-26T03:34:33;96811.53;;;6.26;98.59
47430;BME280;33181;49.246;7.372;2024-02-26T03:37:04;96813.56;;;6.33;97.88
47430;BME280;33181;49.246;7.372;2024-02-26T03:39:30;96801.00;;;6.46;97.93
47430;BME280;33181;49.246;7.372;2024-02-26T03:41:56;96801.63;;;6.58;97.72
47430;BME280;33181;49.246;7.372;2024-02-26T03:44:24;96805.81;;;6.68;96.90
47430;BME280;33181;49.246;7.372;2024-02-26T03:46:50;96809.31;;;6.77;96.57
47430;BME280;33181;49.246;7.372;2024-02-26T03:49:15;96812.16;;;6.84;95.21
47430;BME280;33181;49.246;7.372;2024-02-26T03:51:42;96802.09;;;6.89;94.70
47430;BME280;33181;49.246;7.372;2024-02-26T03:54:10;96810.59;;;6.91;94.16
47430;BME280;33181;49.246;7.372;2024-02-26T03:56:35;96807.25;;;6.99;93.25
47430;BME280;33181;49.246;7.372;2024-02-26T03:59:01;96806.84;;;6.93;92.06
47430;BME280;33181;49.246;7.372;2024-02-26T04:01:28;96805.38;;;6.91;92.98
47430;BME280;33181;49.246;7.372;2024-02-26T04:03:54;96802.31;;;6.95;93.55
47430;BME280;33181;49.246;7.372;2024-02-26T04:06:20;96796.38;;;7.03;93.79
47430;BME280;33181;49.246;7.372;2024-02-26T04:08:47;96795.91;;;7.08;93.82
47430;BME280;33181;49.246;7.372;2024-02-26T04:11:13;96803.13;;;7.14;93.74
47430;BME280;33181;49.246;7.372;2024-02-26T04:13:38;96800.22;;;7.17;93.28
47430;BME280;33181;49.246;7.372;2024-02-26T04:16:05;96801.03;;;7.17;93.29
47430;BME280;33181;49.246;7.372;2024-02-26T04:18:32;96800.91;;;7.19;93.31
47430;BME280;33181;49.246;7.372;2024-02-26T04:20:58;96800.44;;;7.24;93.31
47430;BME280;33181;49.246;7.372;2024-02-26T04:23:24;96813.06;;;7.28;93.34
47430;BME280;33181;49.246;7.372;2024-02-26T04:25:50;96814.59;;;7.21;92.68
47430;BME280;33181;49.246;7.372;2024-02-26T04:28:16;96813.66;;;7.22;92.45
47430;BME280;33181;49.246;7.372;2024-02-26T04:30:42;96815.00;;;7.26;90.82
47430;BME280;33181;49.246;7.372;2024-02-26T04:33:07;96821.50;;;7.22;91.64
47430;BME280;33181;49.246;7.372;2024-02-26T04:35:33;96824.84;;;7.14;92.49
47430;BME280;33181;49.246;7.372;2024-02-26T04:38:01;96832.66;;;7.14;92.66
47430;BME280;33181;49.246;7.372;2024-02-26T04:40:26;96832.22;;;7.19;92.45
47430;BME280;33181;49.246;7.372;2024-02-26T04:42:52;96834.97;;;7.17;91.71
47430;BME280;33181;49.246;7.372;2024-02-26T04:45:18;96843.63;;;7.18;92.68
47430;BME280;33181;49.246;7.372;2024-02-26T04:47:44;96828.78;;;7.18;92.59
47430;BME280;33181;49.246;7.372;2024-02-26T04:50:09;96841.09;;;7.26;92.30
47430;BME280;33181;49.246;7.372;2024-02-26T04:52:36;96834.59;;;7.30;90.64
47430;BME280;33181;49.246;7.372;2024-02-26T04:55:02;96845.50;;;7.26;91.22
47430;BME280;33181;49.246;7.372;2024-02-26T04:57:28;96844.53;;;7.27;91.23
47430;BME280;33181;49.246;7.372;2024-02-26T04:59:54;96846.16;;;7.28;91.19
47430;BME280;33181;49.246;7.372;2024-02-26T05:02:22;96859.72;;;7.31;91.94
47430;BME280;33181;49.246;7.372;2024-02-26T05:04:48;96863.03;;;7.33;92.14
47430;BME280;33181;49.246;7.372;2024-02-26T05:07:14;96857.78;;;7.33;91.41
47430;BME280;33181;49.246;7.372;2024-02-26T05:09:40;96860.91;;;7.37;91.84
47430;BME280;33181;49.246;7.372;2024-02-26T05:12:07;96870.25;;;7.39;91.59
47430;BME280;33181;49.246;7.372;2024-02-26T05:14:33;96873.56;;;7.41;91.69
47430;BME280;33181;49.246;7.372;2024-02-26T05:16:58;96871.75;;;7.42;92.03
47430;BME280;33181;49.246;7.372;2024-02-26T05:19:24;96872.06;;;7.39;92.45
47430;BME280;33181;49.246;7.372;2024-02-26T05:21:50;96868.03;;;7.45;92.56
47430;BME280;33181;49.246;7.372;2024-02-26T05:24:16;96871.28;;;7.47;92.38
47430;BME280;33181;49.246;7.372;2024-02-26T05:26:46;96878.81;;;7.50;91.69
47430;BME280;33181;49.246;7.372;2024-02-26T05:29:12;96880.78;;;7.48;92.20
47430;BME280;33181;49.246;7.372;2024-02-26T05:31:38;96879.13;;;7.47;92.03
47430;BME280;33181;49.246;7.372;2024-02-26T05:34:03;96874.97;;;7.36;92.82
47430;BME280;33181;49.246;7.372;2024-02-26T05:36:29;96872.13;;;7.29;93.32
47430;BME280;33181;49.246;7.372;2024-02-26T05:38:59;96870.81;;;7.25;93.91
47430;BME280;33181;49.246;7.372;2024-02-26T05:41:26;96870.84;;;7.15;95.07
47430;BME280;33181;49.246;7.372;2024-02-26T05:43:53;96874.41;;;6.96;95.84
47430;BME280;33181;49.246;7.372;2024-02-26T05:46:20;96877.78;;;6.89;96.74
47430;BME280;33181;49.246;7.372;2024-02-26T05:48:51;96876.84;;;6.80;97.72
47430;BME280;33181;49.246;7.372;2024-02-26T05:51:17;96863.88;;;6.70;98.44
47430;BME280;33181;49.246;7.372;2024-02-26T05:53:43;96873.78;;;6.67;99.90
47430;BME280;33181;49.246;7.372;2024-02-26T05:56:09;96868.16;;;6.62;100.00
47430;BME280;33181;49.246;7.372;2024-02-26T05:58:35;96866.97;;;6.56;100.00
47430;BME280;33181;49.246;7.372;2024-02-26T06:01:00;96871.28;;;6.47;100.00
47430;BME280;33181;49.246;7.372;2024-02-26T06:03:27;96869.88;;;6.53;100.00
47430;BME280;33181;49.246;7.372;2024-02-26T06:05:52;96873.31;;;6.54;100.00
47430;BME280;33181;49.246;7.372;2024-02-26T06:08:18;96871.13;;;6.49;100.00
47430;BME280;33181;49.246;7.372;2024-02-26T06:10:44;96873.19;;;6.45;100.00
47430;BME280;33181;49.246;7.372;2024-02-26T06:13:10;96871.13;;;6.49;100.00
47430;BME280;33181;49.246;7.372;2024-02-26T06:15:35;96877.59;;;6.45;100.00
47430;BME280;33181;49.246;7.372;2024-02-26T06:18:01;96880.50;;;6.42;100.00
47430;BME280;33181;49.246;7.372;2024-02-26T06:20:27;96883.09;;;6.42;100.00
47430;BME280;33181;49.246;7.372;2024-02-26T06:22:53;96875.50;;;6.48;100.00
47430;BME280;33181;49.246;7.372;2024-02-26T06:25:18;96878.38;;;6.55;100.00
47430;BME280;33181;49.246;7.372;2024-02-26T06:27:44;96874.81;;;6.56;100.00
47430;BME280;33181;49.246;7.372;2024-02-26T06:30:10;96867.88;;;6.65;100.00
47430;BME280;33181;49.246;7.372;2024-02-26T06:32:37;96888.91;;;6.63;100.00
47430;BME280;33181;49.246;7.372;2024-02-26T06:35:03;96884.59;;;6.72;100.00
47430;BME280;33181;49.246;7.372;2024-02-26T06:37:32;96877.97;;;6.78;100.00
47430;BME280;33181;49.246;7.372;2024-02-26T06:40:00;96885.06;;;6.85;100.00
47430;BME280;33181;49.246;7.372;2024-02-26T06:42:25;96888.31;;;6.97;99.45
47430;BME280;33181;49.246;7.372;2024-02-26T06:44:51;96893.53;;;6.97;99.05
47430;BME280;33181;49.246;7.372;2024-02-26T06:47:17;96892.16;;;6.93;99.13
47430;BME280;33181;49.246;7.372;2024-02-26T06:49:43;96898.81;;;6.87;100.00
47430;BME280;33181;49.246;7.372;2024-02-26T06:52:09;96904.78;;;6.97;99.17
47430;BME280;33181;49.246;7.372;2024-02-26T06:54:35;96902.53;;;7.03;98.95
47430;BME280;33181;49.246;7.372;2024-02-26T06:57:01;96914.25;;;6.99;99.58
47430;BME280;33181;49.246;7.372;2024-02-26T06:59:26;96911.56;;;7.08;99.89
47430;BME280;33181;49.246;7.372;2024-02-26T07:01:53;96915.16;;;7.07;98.94
47430;BME280;33181;49.246;7.372;2024-02-26T07:04:20;96923.31;;;7.22;97.69
47430;BME280;33181;49.246;7.372;2024-02-26T07:06:46;96926.13;;;7.11;98.16
47430;BME280;33181;49.246;7.372;2024-02-26T07:09:13;96926.50;;;7.16;98.32
47430;BME280;33181;49.246;7.372;2024-02-26T07:11:39;96927.84;;;7.20;98.54
47430;BME280;33181;49.246;7.372;2024-02-26T07:14:12;96932.63;;;7.07;98.51
47430;BME280;33181;49.246;7.372;2024-02-26T07:16:37;96931.53;;;7.00;99.79
47430;BME280;33181;49.246;7.372;2024-02-26T07:19:03;96936.91;;;6.98;100.00
47430;BME280;33181;49.246;7.372;2024-02-26T07:21:29;96937.84;;;7.07;100.00
47430;BME280;33181;49.246;7.372;2024-02-26T07:23:55;96937.66;;;7.08;100.00
47430;BME280;33181;49.246;7.372;2024-02-26T07:26:21;96940.97;;;7.10;100.00
47430;BME280;33181;49.246;7.372;2024-02-26T07:28:49;96949.72;;;7.19;100.00
47430;BME280;33181;49.246;7.372;2024-02-26T07:31:17;96944.78;;;7.16;99.90
47430;BME280;33181;49.246;7.372;2024-02-26T07:33:42;96946.91;;;7.03;100.00
47430;BME280;33181;49.246;7.372;2024-02-26T07:36:08;96949.78;;;7.09;100.00
47430;BME280;33181;49.246;7.372;2024-02-26T07:38:34;96960.16;;;7.19;100.00
47430;BME280;33181;49.246;7.372;2024-02-26T07:41:02;96958.06;;;7.23;100.00
47430;BME280;33181;49.246;7.372;2024-02-26T07:43:28;96964.47;;;7.10;100.00
47430;BME280;33181;49.246;7.372;2024-02-26T07:45:54;96968.13;;;7.17;100.00
47430;BME280;33181;49.246;7.372;2024-02-26T07:48:20;96965.00;;;7.14;100.00
47430;BME280;33181;49.246;7.372;2024-02-26T07:50:46;96961.50;;;7.23;100.00
47430;BME280;33181;49.246;7.372;2024-02-26T07:53:11;96960.31;;;7.35;100.00
47430;BME280;33181;49.246;7.372;2024-02-26T07:55:37;96973.09;;;7.38;100.00
47430;BME280;33181;49.246;7.372;2024-02-26T07:58:03;96976.22;;;7.42;100.00
47430;BME280;33181;49.246;7.372;2024-02-26T08:00:29;96982.31;;;7.33;100.00
47430;BME280;33181;49.246;7.372;2024-02-26T08:02:54;96974.66;;;7.49;100.00
47430;BME280;33181;49.246;7.372;2024-02-26T08:05:20;96975.94;;;7.63;100.00
47430;BME280;33181;49.246;7.372;2024-02-26T08:07:47;96981.22;;;7.71;99.42
47430;BME280;33181;49.246;7.372;2024-02-26T08:10:13;96976.91;;;7.80;100.00
47430;BME280;33181;49.246;7.372;2024-02-26T08:12:39;96978.16;;;7.94;99.07
47430;BME280;33181;49.246;7.372;2024-02-26T08:15:05;96978.16;;;7.94;99.22
47430;BME280;33181;49.246;7.372;2024-02-26T08:17:31;96978.22;;;8.02;98.97
47430;BME280;33181;49.246;7.372;2024-02-26T08:19:59;96982.16;;;8.06;99.21
47430;BME280;33181;49.246;7.372;2024-02-26T08:22:24;96982.06;;;8.16;97.75
47430;BME280;33181;49.246;7.372;2024-02-26T08:24:50;96985.88;;;8.21;97.51
47430;BME280;33181;49.246;7.372;2024-02-26T08:27:16;96985.94;;;8.29;96.94
47430;BME280;33181;49.246;7.372;2024-02-26T08:29:43;96994.91;;;8.27;96.67
47430;BME280;33181;49.246;7.372;2024-02-26T08:32:08;97001.28;;;8.24;96.71
47430;BME280;33181;49.246;7.372;2024-02-26T08:34:34;97006.88;;;8.29;96.22
47430;BME280;33181;49.246;7.372;2024-02-26T08:37:00;97006.56;;;8.32;95.45
47430;BME280;33181;49.246;7.372;2024-02-26T08:39:26;97007.09;;;8.36;95.31
47430;BME280;33181;49.246;7.372;2024-02-26T08:41:51;96998.84;;;8.49;96.30
47430;BME280;33181;49.246;7.372;2024-02-26T08:44:17;96997.75;;;8.51;96.87
47430;BME280;33181;49.246;7.372;2024-02-26T08:46:43;96991.53;;;8.61;96.04
47430;BME280;33181;49.246;7.372;2024-02-26T08:49:09;97006.13;;;8.63;94.61
47430;BME280;33181;49.246;7.372;2024-02-26T08:51:35;96997.97;;;8.66;94.99
47430;BME280;33181;49.246;7.372;2024-02-26T08:54:00;96997.91;;;8.84;94.46
47430;BME280;33181;49.246;7.372;2024-02-26T08:56:26;97001.84;;;8.88;93.85
47430;BME280;33181;49.246;7.372;2024-02-26T08:58:52;96999.22;;;8.88;92.73
47430;BME280;33181;49.246;7.372;2024-02-26T09:01:21;97000.41;;;8.94;93.23
47430;BME280;33181;49.246;7.372;2024-02-26T09:03:48;97002.13;;;9.11;93.79
47430;BME280;33181;49.246;7.372;2024-02-26T09:06:15;97000.38;;;9.28;92.15
47430;BME280;33181;49.246;7.372;2024-02-26T09:08:41;97013.53;;;9.44;91.11
47430;BME280;33181;49.246;7.372;2024-02-26T09:11:07;97028.06;;;9.31;89.78
47430;BME280;33181;49.246;7.372;2024-02-26T09:13:35;97020.72;;;9.00;90.63
47430;BME280;33181;49.246;7.372;2024-02-26T09:16:01;97014.69;;;9.08;91.84
47430;BME280;33181;49.246;7.372;2024-02-26T09:18:26;97022.31;;;9.27;92.27
47430;BME280;33181;49.246;7.372;2024-02-26T09:20:54;97035.88;;;9.22;90.81
47430;BME280;33181;49.246;7.372;2024-02-26T09:23:20;97030.38;;;9.34;90.94
47430;BME280;33181;49.246;7.372;2024-02-26T09:25:45;97026.94;;;9.33;90.46
47430;BME280;33181;49.246;7.372;2024-02-26T09:28:11;97023.69;;;9.47;89.76
47430;BME280;33181;49.246;7.372;2024-02-26T09:30:39;97019.63;;;9.53;90.57
47430;BME280;33181;49.246;7.372;2024-02-26T09:33:05;97026.47;;;9.46;89.86
47430;BME280;33181;49.246;7.372;2024-02-26T09:35:30;97027.13;;;9.48;89.72
47430;BME280;33181;49.246;7.372;2024-02-26T09:37:56;97041.88;;;9.49;91.04
47430;BME280;33181;49.246;7.372;2024-02-26T09:40:22;97038.28;;;9.58;91.91
47430;BME280;33181;49.246;7.372;2024-02-26T09:42:53;97051.59;;;9.65;90.77
47430;BME280;33181;49.246;7.372;2024-02-26T09:45:22;97040.66;;;9.78;90.31
47430;BME280;33181;49.246;7.372;2024-02-26T09:47:50;97046.84;;;9.77;89.62
47430;BME280;33181;49.246;7.372;2024-02-26T09:50:17;97042.22;;;9.54;88.45
47430;BME280;33181;49.246;7.372;2024-02-26T09:52:43;97045.81;;;9.61;89.87
47430;BME280;33181;49.246;7.372;2024-02-26T09:55:09;97049.63;;;9.67;89.30
47430;BME280;33181;49.246;7.372;2024-02-26T09:57:37;97035.72;;;9.83;89.18
47430;BME280;33181;49.246;7.372;2024-02-26T10:00:05;97041.81;;;9.91;88.73
47430;BME280;33181;49.246;7.372;2024-02-26T10:02:36;97032.63;;;9.95;88.09
47430;BME280;33181;49.246;7.372;2024-02-26T10:05:05;97037.19;;;9.85;87.18
47430;BME280;33181;49.246;7.372;2024-02-26T10:07:33;97038.03;;;9.94;87.26
47430;BME280;33181;49.246;7.372;2024-02-26T10:09:59;97040.81;;;9.84;88.50
47430;BME280;33181;49.246;7.372;2024-02-26T10:12:26;97043.59;;;9.99;89.22
47430;BME280;33181;49.246;7.372;2024-02-26T10:14:53;97048.06;;;10.23;87.90
47430;BME280;33181;49.246;7.372;2024-02-26T10:17:19;97050.34;;;10.18;86.63
47430;BME280;33181;49.246;7.372;2024-02-26T10:19:45;97056.91;;;10.22;85.93
47430;BME280;33181;49.246;7.372;2024-02-26T10:22:11;97057.44;;;10.42;85.63
47430;BME280;33181;49.246;7.372;2024-02-26T10:24:37;97055.59;;;10.59;85.67
47430;BME280;33181;49.246;7.372;2024-02-26T10:27:03;97057.91;;;10.78;85.35
47430;BME280;33181;49.246;7.372;2024-02-26T10:29:33;97050.31;;;10.83;84.10
47430;BME280;33181;49.246;7.372;2024-02-26T10:31:59;97060.78;;;11.00;82.91
47430;BME280;33181;49.246;7.372;2024-02-26T10:34:25;97060.44;;;11.19;82.45
47430;BME280;33181;49.246;7.372;2024-02-26T10:36:52;97058.38;;;11.37;79.94
47430;BME280;33181;49.246;7.372;2024-02-26T10:39:17;97062.81;;;11.37;79.12
47430;BME280;33181;49.246;7.372;2024-02-26T10:41:44;97064.06;;;11.49;80.32
47430;BME280;33181;49.246;7.372;2024-02-26T10:44:11;97065.03;;;11.56;78.91
47430;BME280;33181;49.246;7.372;2024-02-26T10:46:40;97068.53;;;11.49;78.59
47430;BME280;33181;49.246;7.372;2024-02-26T10:49:16;97073.72;;;11.18;80.51
47430;BME280;33181;49.246;7.372;2024-02-26T10:51:45;97077.97;;;11.19;80.40
47430;BME280;33181;49.246;7.372;2024-02-26T10:54:15;97075.81;;;11.39;81.14
47430;BME280;33181;49.246;7.372;2024-02-26T10:56:42;97082.31;;;11.51;78.73
47430;BME280;33181;49.246;7.372;2024-02-26T10:59:10;97074.78;;;11.79;79.08
47430;BME280;33181;49.246;7.372;2024-02-26T11:01:36;97083.47;;;11.88;75.85
47430;BME280;33181;49.246;7.372;2024-02-26T11:04:08;97083.03;;;12.07;75.67
47430;BME280;33181;49.246;7.372;2024-02-26T11:06:34;97085.03;;;12.28;75.03
47430;BME280;33181;49.246;7.372;2024-02-26T11:09:02;97081.09;;;12.47;74.08
47430;BME280;33181;49.246;7.372;2024-02-26T11:11:31;97084.16;;;12.73;74.12
47430;BME280;33181;49.246;7.372;2024-02-26T11:13:57;97091.56;;;13.08;73.78
47430;BME280;33181;49.246;7.372;2024-02-26T11:16:26;97090.41;;;13.55;70.06
47430;BME280;33181;49.246;7.372;2024-02-26T11:18:53;97093.41;;;14.03;68.49
47430;BME280;33181;49.246;7.372;2024-02-26T11:21:21;97096.09;;;14.24;67.84
47430;BME280;33181;49.246;7.372;2024-02-26T11:23:57;97096.84;;;13.97;67.87
47430;BME280;33181;49.246;7.372;2024-02-26T11:26:23;97093.34;;;13.96;67.61
47430;BME280;33181;49.246;7.372;2024-02-26T11:28:51;97099.28;;;13.83;66.84
47430;BME280;33181;49.246;7.372;2024-02-26T11:31:17;97093.72;;;13.93;66.93
47430;BME280;33181;49.246;7.372;2024-02-26T11:33:50;97099.97;;;14.07;66.25
47430;BME280;33181;49.246;7.372;2024-02-26T11:36:17;97107.19;;;13.62;67.81
47430;BME280;33181;49.246;7.372;2024-02-26T11:38:44;97106.25;;;13.55;68.48
47430;BME280;33181;49.246;7.372;2024-02-26T11:41:10;97101.09;;;13.47;69.22
47430;BME280;33181;49.246;7.372;2024-02-26T11:44:02;97106.56;;;13.07;70.42
47430;BME280;33181;49.246;7.372;2024-02-26T11:46:40;97104.66;;;13.01;70.85
47430;BME280;33181;49.246;7.372;2024-02-26T11:51:54;97099.91;;;12.82;70.08
47430;BME280;33181;49.246;7.372;2024-02-26T11:54:45;97097.72;;;12.85;69.84
47430;BME280;33181;49.246;7.372;2024-02-26T11:59:51;97093.53;;;13.29;69.81
47430;BME280;33181;49.246;7.372;2024-02-26T12:02:37;97098.91;;;13.50;68.12
47430;BME280;33181;49.246;7.372;2024-02-26T12:07:42;97096.63;;;13.32;67.25
47430;BME280;33181;49.246;7.372;2024-02-26T12:10:28;97105.00;;;13.51;66.45
47430;BME280;33181;49.246;7.372;2024-02-26T12:15:41;97107.75;;;13.05;67.31
47430;BME280;33181;49.246;7.372;2024-02-26T12:18:08;97107.03;;;13.11;68.27
47430;BME280;33181;49.246;7.372;2024-02-26T12:20:37;97101.81;;;13.26;67.82
47430;BME280;33181;49.246;7.372;2024-02-26T12:23:03;97106.75;;;13.06;68.08
47430;BME280;33181;49.246;7.372;2024-02-26T12:25:30;97111.66;;;12.94;68.99
47430;BME280;33181;49.246;7.372;2024-02-26T12:27:57;97119.97;;;12.83;67.87
47430;BME280;33181;49.246;7.372;2024-02-26T12:30:24;97110.91;;;12.85;69.40
47430;BME280;33181;49.246;7.372;2024-02-26T12:32:52;97116.16;;;12.85;69.42
47430;BME280;33181;49.246;7.372;2024-02-26T12:35:18;97115.97;;;12.72;68.94
47430;BME280;33181;49.246;7.372;2024-02-26T12:37:44;97121.19;;;12.57;69.17
47430;BME280;33181;49.246;7.372;2024-02-26T12:40:11;97119.25;;;12.51;69.84
47430;BME280;33181;49.246;7.372;2024-02-26T12:42:40;97113.47;;;12.56;68.49
47430;BME280;33181;49.246;7.372;2024-02-26T12:45:09;97110.09;;;12.85;68.84
47430;BME280;33181;49.246;7.372;2024-02-26T12:47:42;97113.84;;;13.20;68.29
47430;BME280;33181;49.246;7.372;2024-02-26T12:50:10;97116.19;;;13.38;67.33
47430;BME280;33181;49.246;7.372;2024-02-26T12:52:39;97117.81;;;13.39;67.34
47430;BME280;33181;49.246;7.372;2024-02-26T12:55:06;97125.81;;;13.31;67.17
47430;BME280;33181;49.246;7.372;2024-02-26T12:57:37;97131.09;;;13.08;67.87
47430;BME280;33181;49.246;7.372;2024-02-26T13:00:09;97134.28;;;13.03;67.69
47430;BME280;33181;49.246;7.372;2024-02-26T13:02:37;97129.63;;;12.90;68.84
47430;BME280;33181;49.246;7.372;2024-02-26T13:05:06;97132.63;;;12.87;68.99
47430;BME280;33181;49.246;7.372;2024-02-26T13:07:34;97140.13;;;12.75;68.08
47430;BME280;33181;49.246;7.372;2024-02-26T13:10:00;97131.56;;;12.96;68.81
47430;BME280;33181;49.246;7.372;2024-02-26T13:12:26;97131.38;;;12.98;65.80
47430;BME280;33181;49.246;7.372;2024-02-26T13:15:03;97131.22;;;12.76;68.70